AirNav   Everest Fuels
 
 568 users online  

01IS William E Koenig Airport
Dow, Illinois, USA

GOING TO DOW?


FAA INFORMATION EFFECTIVE 07 OCTOBER 2021

Location

FAA Identifier: 01IS
Lat/Long: 39-00-58.1700N 090-19-05.4070W
39-00.969500N 090-19.090117W
39.0161583,-90.3181686
(estimated)
Elevation: 670 ft. / 204 m (estimated)
Variation: 02E (1985)
From city: 1 mile E of DOW, IL
Time zone: UTC -5 (UTC -6 during Standard Time)
Zip code: 62022

Airport Operations

Airport use: Private use. Permission required prior to landing
Activation date: 03/1967
Control tower: no
ARTCC: KANSAS CITY CENTER
FSS: SAINT LOUIS FLIGHT SERVICE STATION
Attendance: UNATNDD
Wind indicator: yes
Segmented circle: no

Airport Communications

WX ASOS at SET (7 nm SW): 118.075 (636-250-4590)
WX AWOS-3 at ALN (15 nm SE): 128.0 (618-259-7231)
WX ASOS at STL (16 nm S): PHONE 314-890-4790

Nearby radio navigation aids

VOR radial/distance  VOR name  Freq  Var
STLr038/12.1ST LOUIS VORTAC117.4001E
TOYr308/25.0TROY VORTAC116.0004E
FTZr053/36.1FORISTELL VORTAC110.8005E

 
NDB name  Hdg/Dist  Freq  Var  ID
CIVIC MEMORIAL302/14.326301WCVM -.-. ...- --

Airport Services

Airframe service: NONE
Powerplant service: NONE

Runway Information

Runway 9/27

Dimensions: 1300 x 100 ft. / 396 x 30 m
Surface: turf
RUNWAY 9  RUNWAY 27
Traffic pattern: leftleft

Airport Ownership and Management from official FAA records

Ownership: Privately-owned
Owner: WILLIAM E. KOENIG
25486 DOW RD
DOW, IL 62022
Phone 618-885-5415

Additional Remarks

FOR CD CTC ST LOUIS APCH AT 314-890-1018.

Instrument Procedures

There are no published instrument procedures at 01IS.

Some nearby airports with instrument procedures:

KSET - St Charles County Smartt Airport (7 nm SW)
KALN - St Louis Regional Airport (15 nm SE)
KSTL - St Louis Lambert International Airport (16 nm S)
1H0 - Creve Coeur Airport (19 nm SW)
KSUS - Spirit of St Louis Airport (26 nm SW)
 
Loc | Ops | Rwys | IFR | FBO | Links
Com | Nav | Svcs | Stats | Notes
Area around 01IS (William E Koenig Airport)
 
Road maps at: MapQuest Bing Google
 
Aerial photo
No photo
 
Sectional chart

 
Airport distance calculator
Flying to William E Koenig Airport? Find the distance to fly.

From to 01IS

Sunrise and sunset
Times for 28-Oct-2021
 Local
(UTC-5)
 Zulu
(UTC)
Morning civil twilight06:5811:58
Sunrise07:2512:25
Sunset18:0523:05
Evening civil twilight18:3223:32

Current date and time
Zulu (UTC)  28-Oct-2021 05:06:36
Local (UTC-5)  28-Oct-2021 00:06:36
 
METAR
KSET 
7nm SW 
280454Z AUTO 09015KT 10SM -RA OVC090 13/06 A2957 RMK AO2 RAB00 PRESFR SLP010 P0001 T01280061
KALN 
15nm SE 
280430Z AUTO 09011G16KT 10SM -RA OVC100 12/06 A2963 RMK AO2 T01210057
KSTL 
16nm S 
280451Z 09016G23KT 10SM OVC090 13/05 A2957 RMK AO2 PK WND 10026/0408 RAE46 PRESFR SLP009 P0000 T01330050
TAF
KSTL 
16nm S 
280259Z 2803/2906 11014G20KT P6SM -RA OVC080 FM280700 10013G19KT 5SM SHRA BR OVC040 FM281100 09011KT 4SM SHRA BR OVC015 FM281400 08009KT 5SM -DZ BR OVC008 FM290000 03007KT 5SM -DZ BR OVC012
NOTAMs
Click for the latest NOTAMs
NOTAMs are issued by the DoD/FAA and will open in a separate window not controlled by AirNav.

 

 
 

Would you like to see your business listed on this page?

 If your business provides an interesting product or service to pilots, flight crews, aircraft, or users of the William E Koenig Airport, you should consider listing it here.  To start the listing process, click on the button below
 
Add a business
 

Other Pages about William E Koenig Airport

Update a link
 
Copyright © AirNav, LLC. All rights reserved. Privacy Policy  Contact